sensor_id;sensor_type;location;lat;lon;timestamp;pressure;altitude;pressure_sealevel;temperature;humidity
3748;BME280;1889;50.058;8.688;2023-09-08T00:01:04;100485.30;;;20.59;71.34
3748;BME280;1889;50.058;8.688;2023-09-08T00:03:33;100490.25;;;20.58;71.51
3748;BME280;1889;50.058;8.688;2023-09-08T00:06:02;100485.59;;;20.61;71.64
3748;BME280;1889;50.058;8.688;2023-09-08T00:08:32;100481.50;;;20.63;71.58
3748;BME280;1889;50.058;8.688;2023-09-08T00:11:01;100491.80;;;20.62;71.43
3748;BME280;1889;50.058;8.688;2023-09-08T00:13:30;100485.66;;;20.60;71.39
3748;BME280;1889;50.058;8.688;2023-09-08T00:16:00;100487.86;;;20.60;71.24
3748;BME280;1889;50.058;8.688;2023-09-08T00:18:29;100482.23;;;20.58;71.19
3748;BME280;1889;50.058;8.688;2023-09-08T00:20:58;100483.17;;;20.56;71.34
3748;BME280;1889;50.058;8.688;2023-09-08T00:23:27;100474.77;;;20.47;71.66
3748;BME280;1889;50.058;8.688;2023-09-08T00:25:56;100474.77;;;20.47;71.66
3748;BME280;1889;50.058;8.688;2023-09-08T00:28:26;100475.02;;;20.42;71.54
3748;BME280;1889;50.058;8.688;2023-09-08T00:30:55;100481.23;;;20.43;71.40
3748;BME280;1889;50.058;8.688;2023-09-08T00:33:25;100474.30;;;20.39;71.57
3748;BME280;1889;50.058;8.688;2023-09-08T00:35:54;100473.03;;;20.37;71.71
3748;BME280;1889;50.058;8.688;2023-09-08T00:38:25;100471.30;;;20.36;71.99
3748;BME280;1889;50.058;8.688;2023-09-08T00:40:54;100471.30;;;20.36;71.99
3748;BME280;1889;50.058;8.688;2023-09-08T00:43:23;100464.33;;;20.34;71.63
3748;BME280;1889;50.058;8.688;2023-09-08T00:45:54;100465.71;;;20.32;71.66
3748;BME280;1889;50.058;8.688;2023-09-08T00:48:26;100464.45;;;20.31;71.70
3748;BME280;1889;50.058;8.688;2023-09-08T00:50:56;100470.66;;;20.31;71.67
3748;BME280;1889;50.058;8.688;2023-09-08T00:53:26;100462.71;;;20.30;71.59
3748;BME280;1889;50.058;8.688;2023-09-08T00:55:56;100457.05;;;20.27;71.62
3748;BME280;1889;50.058;8.688;2023-09-08T00:58:27;100461.56;;;20.27;71.67
3748;BME280;1889;50.058;8.688;2023-09-08T01:00:56;100454.08;;;20.25;71.66
3748;BME280;1889;50.058;8.688;2023-09-08T01:03:26;100458.64;;;20.23;71.58
3748;BME280;1889;50.058;8.688;2023-09-08T01:05:56;100453.36;;;20.21;71.65
3748;BME280;1889;50.058;8.688;2023-09-08T01:08:25;100456.03;;;20.21;71.74
3748;BME280;1889;50.058;8.688;2023-09-08T01:10:55;100458.70;;;20.21;71.75
3748;BME280;1889;50.058;8.688;2023-09-08T01:13:24;100456.36;;;20.24;71.77
3748;BME280;1889;50.058;8.688;2023-09-08T01:15:53;100452.50;;;20.20;71.71
3748;BME280;1889;50.058;8.688;2023-09-08T01:18:23;100459.58;;;20.22;71.58
3748;BME280;1889;50.058;8.688;2023-09-08T01:21:14;100463.98;;;20.23;71.53
3748;BME280;1889;50.058;8.688;2023-09-08T01:23:53;100463.98;;;20.23;71.52
3748;BME280;1889;50.058;8.688;2023-09-08T01:26:18;100456.29;;;20.16;71.43
3748;BME280;1889;50.058;8.688;2023-09-08T01:28:50;100468.24;;;20.18;71.34
3748;BME280;1889;50.058;8.688;2023-09-08T01:31:19;100469.47;;;20.19;71.32
3748;BME280;1889;50.058;8.688;2023-09-08T01:33:49;100465.25;;;20.15;71.38
3748;BME280;1889;50.058;8.688;2023-09-08T01:36:19;100475.94;;;20.15;71.47
3748;BME280;1889;50.058;8.688;2023-09-08T01:38:48;100470.59;;;20.15;71.54
3748;BME280;1889;50.058;8.688;2023-09-08T01:41:17;100469.80;;;20.13;71.53
3748;BME280;1889;50.058;8.688;2023-09-08T01:43:46;100467.77;;;20.10;71.54
3748;BME280;1889;50.058;8.688;2023-09-08T01:46:15;100465.39;;;20.04;71.73
3748;BME280;1889;50.058;8.688;2023-09-08T01:48:44;100462.42;;;20.01;71.80
3748;BME280;1889;50.058;8.688;2023-09-08T01:51:13;100464.70;;;20.00;71.87
3748;BME280;1889;50.058;8.688;2023-09-08T01:53:43;100463.91;;;19.98;71.92
3748;BME280;1889;50.058;8.688;2023-09-08T01:56:12;100456.50;;;19.95;71.98
3748;BME280;1889;50.058;8.688;2023-09-08T01:58:41;100454.41;;;19.93;72.07
3748;BME280;1889;50.058;8.688;2023-09-08T02:01:10;100452.34;;;19.89;71.93
3748;BME280;1889;50.058;8.688;2023-09-08T02:03:39;100450.39;;;19.84;72.03
3748;BME280;1889;50.058;8.688;2023-09-08T02:06:09;100452.80;;;19.80;72.11
3748;BME280;1889;50.058;8.688;2023-09-08T02:08:38;100453.27;;;19.79;72.18
3748;BME280;1889;50.058;8.688;2023-09-08T02:11:07;100452.41;;;19.79;72.16
3748;BME280;1889;50.058;8.688;2023-09-08T02:13:37;100453.38;;;19.78;72.18
3748;BME280;1889;50.058;8.688;2023-09-08T02:16:06;100450.85;;;19.75;72.29
3748;BME280;1889;50.058;8.688;2023-09-08T02:18:35;100451.92;;;19.71;72.28
3748;BME280;1889;50.058;8.688;2023-09-08T02:21:04;100453.98;;;19.66;72.49
3748;BME280;1889;50.058;8.688;2023-09-08T02:23:33;100453.51;;;19.66;72.47
3748;BME280;1889;50.058;8.688;2023-09-08T02:26:03;100455.64;;;19.68;72.54
3748;BME280;1889;50.058;8.688;2023-09-08T02:28:32;100456.78;;;19.63;72.27
3748;BME280;1889;50.058;8.688;2023-09-08T02:31:01;100456.78;;;19.63;72.27
3748;BME280;1889;50.058;8.688;2023-09-08T02:33:30;100454.69;;;19.61;72.64
3748;BME280;1889;50.058;8.688;2023-09-08T02:36:04;100454.83;;;19.58;72.64
3748;BME280;1889;50.058;8.688;2023-09-08T02:38:33;100457.34;;;19.52;72.73
3748;BME280;1889;50.058;8.688;2023-09-08T02:41:02;100453.00;;;19.50;72.65
3748;BME280;1889;50.058;8.688;2023-09-08T02:43:32;100451.88;;;19.45;72.66
3748;BME280;1889;50.058;8.688;2023-09-08T02:46:01;100460.16;;;19.39;72.86
3748;BME280;1889;50.058;8.688;2023-09-08T02:48:30;100460.16;;;19.39;72.86
3748;BME280;1889;50.058;8.688;2023-09-08T02:50:59;100454.59;;;19.35;73.04
3748;BME280;1889;50.058;8.688;2023-09-08T02:53:28;100454.59;;;19.35;73.04
3748;BME280;1889;50.058;8.688;2023-09-08T02:55:59;100457.73;;;19.34;73.08
3748;BME280;1889;50.058;8.688;2023-09-08T03:03:55;100461.00;;;19.31;73.25
3748;BME280;1889;50.058;8.688;2023-09-08T03:06:24;100455.83;;;19.28;73.18
3748;BME280;1889;50.058;8.688;2023-09-08T03:08:53;100453.63;;;19.27;73.25
3748;BME280;1889;50.058;8.688;2023-09-08T03:11:22;100451.89;;;19.26;73.37
3748;BME280;1889;50.058;8.688;2023-09-08T03:13:51;100450.42;;;19.29;73.26
3748;BME280;1889;50.058;8.688;2023-09-08T03:16:21;100448.28;;;19.27;73.21
3748;BME280;1889;50.058;8.688;2023-09-08T03:18:50;100455.97;;;19.25;73.29
3748;BME280;1889;50.058;8.688;2023-09-08T03:21:19;100457.94;;;19.21;73.52
3748;BME280;1889;50.058;8.688;2023-09-08T03:23:48;100460.50;;;19.23;73.70
3748;BME280;1889;50.058;8.688;2023-09-08T03:26:17;100456.50;;;19.23;73.72
3748;BME280;1889;50.058;8.688;2023-09-08T03:28:47;100458.87;;;19.20;73.83
3748;BME280;1889;50.058;8.688;2023-09-08T03:31:16;100458.87;;;19.20;73.86
3748;BME280;1889;50.058;8.688;2023-09-08T03:33:46;100451.53;;;19.15;73.90
3748;BME280;1889;50.058;8.688;2023-09-08T03:36:15;100455.27;;;19.21;73.75
3748;BME280;1889;50.058;8.688;2023-09-08T03:38:45;100449.59;;;19.19;73.80
3748;BME280;1889;50.058;8.688;2023-09-08T03:41:14;100451.27;;;19.21;73.92
3748;BME280;1889;50.058;8.688;2023-09-08T03:43:44;100445.42;;;19.22;74.05
3748;BME280;1889;50.058;8.688;2023-09-08T03:46:13;100451.56;;;19.24;74.02
3748;BME280;1889;50.058;8.688;2023-09-08T03:48:43;100438.98;;;19.17;73.93
3748;BME280;1889;50.058;8.688;2023-09-08T03:51:12;100450.76;;;19.22;73.94
3748;BME280;1889;50.058;8.688;2023-09-08T03:53:41;100444.80;;;19.17;73.62
3748;BME280;1889;50.058;8.688;2023-09-08T03:56:10;100448.33;;;19.17;73.74
3748;BME280;1889;50.058;8.688;2023-09-08T03:58:40;100450.77;;;19.13;73.70
3748;BME280;1889;50.058;8.688;2023-09-08T04:01:09;100450.77;;;19.13;73.70
3748;BME280;1889;50.058;8.688;2023-09-08T04:03:38;100455.23;;;19.13;73.80
3748;BME280;1889;50.058;8.688;2023-09-08T04:06:08;100458.37;;;19.12;73.80
3748;BME280;1889;50.058;8.688;2023-09-08T04:08:37;100464.37;;;19.07;73.84
3748;BME280;1889;50.058;8.688;2023-09-08T04:11:06;100463.44;;;19.08;73.85
3748;BME280;1889;50.058;8.688;2023-09-08T04:13:36;100464.20;;;19.01;73.55
3748;BME280;1889;50.058;8.688;2023-09-08T04:16:05;100464.20;;;19.01;73.55
3748;BME280;1889;50.058;8.688;2023-09-08T04:18:34;100468.20;;;19.01;73.72
3748;BME280;1889;50.058;8.688;2023-09-08T04:21:08;100471.09;;;18.97;73.70
3748;BME280;1889;50.058;8.688;2023-09-08T04:23:37;100471.09;;;18.97;73.70
3748;BME280;1889;50.058;8.688;2023-09-08T04:26:07;100473.50;;;18.93;73.79
3748;BME280;1889;50.058;8.688;2023-09-08T04:28:36;100471.76;;;18.92;73.86
3748;BME280;1889;50.058;8.688;2023-09-08T04:31:06;100473.16;;;18.90;73.82
3748;BME280;1889;50.058;8.688;2023-09-08T04:33:35;100468.39;;;18.88;73.72
3748;BME280;1889;50.058;8.688;2023-09-08T04:36:04;100473.38;;;18.86;73.83
3748;BME280;1889;50.058;8.688;2023-09-08T04:38:34;100473.38;;;18.86;73.83
3748;BME280;1889;50.058;8.688;2023-09-08T04:41:03;100479.72;;;18.83;73.84
3748;BME280;1889;50.058;8.688;2023-09-08T04:43:32;100469.34;;;18.77;73.93
3748;BME280;1889;50.058;8.688;2023-09-08T04:46:02;100474.80;;;18.74;73.97
3748;BME280;1889;50.058;8.688;2023-09-08T04:48:31;100479.20;;;18.75;74.06
3748;BME280;1889;50.058;8.688;2023-09-08T04:51:01;100479.20;;;18.75;74.06
3748;BME280;1889;50.058;8.688;2023-09-08T04:53:30;100486.56;;;18.70;73.96
3748;BME280;1889;50.058;8.688;2023-09-08T04:56:01;100486.56;;;18.70;73.96
3748;BME280;1889;50.058;8.688;2023-09-08T04:58:30;100483.48;;;18.69;74.05
3748;BME280;1889;50.058;8.688;2023-09-08T05:00:59;100485.63;;;18.71;73.97
3748;BME280;1889;50.058;8.688;2023-09-08T05:03:29;100483.48;;;18.69;74.05
3748;BME280;1889;50.058;8.688;2023-09-08T05:05:58;100490.96;;;18.71;74.46
3748;BME280;1889;50.058;8.688;2023-09-08T05:08:29;100490.96;;;18.71;74.46
3748;BME280;1889;50.058;8.688;2023-09-08T05:10:58;100495.54;;;18.78;74.32
3748;BME280;1889;50.058;8.688;2023-09-08T05:13:28;100494.91;;;18.81;74.24
3748;BME280;1889;50.058;8.688;2023-09-08T05:15:57;100501.92;;;18.84;74.97
3748;BME280;1889;50.058;8.688;2023-09-08T05:18:28;100501.92;;;18.84;74.97
3748;BME280;1889;50.058;8.688;2023-09-08T05:20:58;100499.53;;;18.88;74.71
3748;BME280;1889;50.058;8.688;2023-09-08T05:23:27;100496.64;;;18.92;74.60
3748;BME280;1889;50.058;8.688;2023-09-08T05:25:56;100498.14;;;18.98;74.68
3748;BME280;1889;50.058;8.688;2023-09-08T05:28:26;100494.48;;;19.00;74.70
3748;BME280;1889;50.058;8.688;2023-09-08T05:30:55;100498.35;;;19.03;74.79
3748;BME280;1889;50.058;8.688;2023-09-08T05:33:24;100498.14;;;18.98;75.18
3748;BME280;1889;50.058;8.688;2023-09-08T05:35:53;100496.09;;;19.04;75.12
3748;BME280;1889;50.058;8.688;2023-09-08T05:38:23;100499.56;;;19.15;74.88
3748;BME280;1889;50.058;8.688;2023-09-08T05:40:53;100497.47;;;19.22;74.70
3748;BME280;1889;50.058;8.688;2023-09-08T05:43:25;100504.97;;;19.32;74.41
3748;BME280;1889;50.058;8.688;2023-09-08T05:45:54;100493.33;;;19.43;73.96
3748;BME280;1889;50.058;8.688;2023-09-08T05:48:23;100496.20;;;19.49;73.74
3748;BME280;1889;50.058;8.688;2023-09-08T05:50:53;100492.45;;;19.53;73.49
3748;BME280;1889;50.058;8.688;2023-09-08T05:53:22;100498.28;;;19.61;73.20
3748;BME280;1889;50.058;8.688;2023-09-08T05:55:51;100507.33;;;19.67;72.92
3748;BME280;1889;50.058;8.688;2023-09-08T05:58:21;100498.67;;;19.71;72.47
3748;BME280;1889;50.058;8.688;2023-09-08T06:00:51;100506.64;;;19.81;72.49
3748;BME280;1889;50.058;8.688;2023-09-08T06:03:21;100506.64;;;19.81;72.49
3748;BME280;1889;50.058;8.688;2023-09-08T06:05:50;100505.47;;;19.78;72.23
3748;BME280;1889;50.058;8.688;2023-09-08T06:08:20;100504.45;;;19.89;71.73
3748;BME280;1889;50.058;8.688;2023-09-08T06:10:49;100504.70;;;19.93;71.54
3748;BME280;1889;50.058;8.688;2023-09-08T06:13:18;100504.45;;;19.98;71.55
3748;BME280;1889;50.058;8.688;2023-09-08T06:15:48;100502.34;;;20.04;71.33
3748;BME280;1889;50.058;8.688;2023-09-08T06:18:17;100500.61;;;20.12;71.15
3748;BME280;1889;50.058;8.688;2023-09-08T06:20:47;100498.80;;;20.21;70.78
3748;BME280;1889;50.058;8.688;2023-09-08T06:23:19;100495.59;;;20.23;70.76
3748;BME280;1889;50.058;8.688;2023-09-08T06:25:47;100498.48;;;20.27;70.57
3748;BME280;1889;50.058;8.688;2023-09-08T06:28:16;100501.19;;;20.36;70.38
3748;BME280;1889;50.058;8.688;2023-09-08T06:30:45;100497.03;;;20.39;70.23
3748;BME280;1889;50.058;8.688;2023-09-08T06:33:15;100497.34;;;20.50;69.81
3748;BME280;1889;50.058;8.688;2023-09-08T06:35:45;100497.34;;;20.50;69.81
3748;BME280;1889;50.058;8.688;2023-09-08T06:38:15;100501.97;;;20.55;69.84
3748;BME280;1889;50.058;8.688;2023-09-08T06:40:44;100509.27;;;20.60;69.62
3748;BME280;1889;50.058;8.688;2023-09-08T06:43:13;100510.12;;;20.61;69.76
3748;BME280;1889;50.058;8.688;2023-09-08T06:45:42;100509.03;;;20.73;69.18
3748;BME280;1889;50.058;8.688;2023-09-08T06:48:11;100509.03;;;20.73;69.18
3748;BME280;1889;50.058;8.688;2023-09-08T06:50:40;100507.69;;;20.73;69.17
3748;BME280;1889;50.058;8.688;2023-09-08T06:53:10;100503.00;;;20.85;68.52
3748;BME280;1889;50.058;8.688;2023-09-08T06:55:40;100509.74;;;20.92;68.42
3748;BME280;1889;50.058;8.688;2023-09-08T06:58:10;100510.98;;;21.03;67.94
3748;BME280;1889;50.058;8.688;2023-09-08T07:00:40;100508.70;;;21.04;68.18
3748;BME280;1889;50.058;8.688;2023-09-08T07:03:09;100506.18;;;21.01;68.13
3748;BME280;1889;50.058;8.688;2023-09-08T07:05:42;100503.59;;;21.08;67.85
3748;BME280;1889;50.058;8.688;2023-09-08T07:08:11;100501.19;;;21.10;67.67
3748;BME280;1889;50.058;8.688;2023-09-08T07:10:40;100498.44;;;21.20;67.04
3748;BME280;1889;50.058;8.688;2023-09-08T07:13:09;100505.26;;;21.26;66.90
3748;BME280;1889;50.058;8.688;2023-09-08T07:15:38;100502.54;;;21.35;66.45
3748;BME280;1889;50.058;8.688;2023-09-08T07:18:07;100500.17;;;21.37;66.50
3748;BME280;1889;50.058;8.688;2023-09-08T07:20:36;100500.02;;;21.40;66.55
3748;BME280;1889;50.058;8.688;2023-09-08T07:23:06;100503.20;;;21.47;66.34
3748;BME280;1889;50.058;8.688;2023-09-08T07:25:35;100502.06;;;21.51;66.51
3748;BME280;1889;50.058;8.688;2023-09-08T07:28:05;100500.68;;;21.59;66.24
3748;BME280;1889;50.058;8.688;2023-09-08T07:30:34;100504.17;;;21.68;65.93
3748;BME280;1889;50.058;8.688;2023-09-08T07:33:03;100508.67;;;21.68;65.95
3748;BME280;1889;50.058;8.688;2023-09-08T07:35:38;100493.48;;;21.76;65.72
3748;BME280;1889;50.058;8.688;2023-09-08T07:38:08;100494.47;;;21.82;65.75
3748;BME280;1889;50.058;8.688;2023-09-08T07:40:37;100492.95;;;21.85;65.59
3748;BME280;1889;50.058;8.688;2023-09-08T07:43:06;100494.72;;;21.93;65.48
3748;BME280;1889;50.058;8.688;2023-09-08T07:45:35;100496.03;;;22.01;65.13
3748;BME280;1889;50.058;8.688;2023-09-08T07:48:04;100497.00;;;22.07;65.01
3748;BME280;1889;50.058;8.688;2023-09-08T07:50:33;100492.72;;;22.12;64.62
3748;BME280;1889;50.058;8.688;2023-09-08T07:53:02;100493.77;;;22.17;64.77
3748;BME280;1889;50.058;8.688;2023-09-08T07:55:31;100503.73;;;22.22;63.90
3748;BME280;1889;50.058;8.688;2023-09-08T07:58:01;100497.08;;;22.29;63.80
3748;BME280;1889;50.058;8.688;2023-09-08T08:00:32;100493.21;;;22.19;63.40
3748;BME280;1889;50.058;8.688;2023-09-08T08:03:01;100498.98;;;22.27;63.58
3748;BME280;1889;50.058;8.688;2023-09-08T08:05:30;100503.32;;;22.36;63.30
3748;BME280;1889;50.058;8.688;2023-09-08T08:07:59;100502.06;;;22.35;63.26
3748;BME280;1889;50.058;8.688;2023-09-08T08:10:28;100498.53;;;22.41;63.19
3748;BME280;1889;50.058;8.688;2023-09-08T08:12:58;100498.23;;;22.46;63.19
3748;BME280;1889;50.058;8.688;2023-09-08T08:15:34;100500.27;;;22.57;62.64
3748;BME280;1889;50.058;8.688;2023-09-08T08:18:05;100499.22;;;22.45;62.01
3748;BME280;1889;50.058;8.688;2023-09-08T08:20:34;100503.91;;;22.63;61.71
3748;BME280;1889;50.058;8.688;2023-09-08T08:23:05;100508.33;;;22.71;61.80
3748;BME280;1889;50.058;8.688;2023-09-08T08:25:34;100511.83;;;22.80;61.81
3748;BME280;1889;50.058;8.688;2023-09-08T08:28:04;100514.56;;;22.71;61.01
3748;BME280;1889;50.058;8.688;2023-09-08T08:30:33;100508.19;;;22.74;61.20
3748;BME280;1889;50.058;8.688;2023-09-08T08:33:03;100506.84;;;22.81;60.63
3748;BME280;1889;50.058;8.688;2023-09-08T08:35:32;100509.92;;;22.89;60.62
3748;BME280;1889;50.058;8.688;2023-09-08T08:38:01;100512.13;;;22.97;60.84
3748;BME280;1889;50.058;8.688;2023-09-08T08:40:31;100506.57;;;23.00;60.77
3748;BME280;1889;50.058;8.688;2023-09-08T08:43:02;100506.38;;;23.10;60.36
3748;BME280;1889;50.058;8.688;2023-09-08T08:45:32;100499.28;;;23.09;59.78
3748;BME280;1889;50.058;8.688;2023-09-08T08:48:02;100499.84;;;23.14;59.91
3748;BME280;1889;50.058;8.688;2023-09-08T08:50:32;100503.38;;;23.21;59.80
3748;BME280;1889;50.058;8.688;2023-09-08T08:53:03;100497.91;;;23.23;59.20
3748;BME280;1889;50.058;8.688;2023-09-08T08:55:34;100491.38;;;23.34;58.98
3748;BME280;1889;50.058;8.688;2023-09-08T08:58:06;100495.67;;;23.37;58.77
3748;BME280;1889;50.058;8.688;2023-09-08T09:00:36;100496.33;;;23.47;59.04
3748;BME280;1889;50.058;8.688;2023-09-08T09:03:06;100483.70;;;23.49;58.02
3748;BME280;1889;50.058;8.688;2023-09-08T09:05:37;100486.55;;;23.53;58.23
3748;BME280;1889;50.058;8.688;2023-09-08T09:08:07;100486.91;;;23.62;58.22
3748;BME280;1889;50.058;8.688;2023-09-08T09:10:37;100490.44;;;23.69;57.89
3748;BME280;1889;50.058;8.688;2023-09-08T09:13:06;100480.06;;;23.70;57.54
3748;BME280;1889;50.058;8.688;2023-09-08T09:15:35;100486.66;;;23.79;57.28
3748;BME280;1889;50.058;8.688;2023-09-08T09:18:05;100483.84;;;23.87;57.20
3748;BME280;1889;50.058;8.688;2023-09-08T09:20:35;100483.80;;;23.94;57.04
3748;BME280;1889;50.058;8.688;2023-09-08T09:23:05;100478.39;;;24.02;56.87
3748;BME280;1889;50.058;8.688;2023-09-08T09:25:34;100483.47;;;24.06;56.30
3748;BME280;1889;50.058;8.688;2023-09-08T09:28:04;100481.45;;;24.03;55.87
3748;BME280;1889;50.058;8.688;2023-09-08T09:30:50;100482.99;;;24.07;55.82
3748;BME280;1889;50.058;8.688;2023-09-08T09:33:19;100479.98;;;24.11;55.27
3748;BME280;1889;50.058;8.688;2023-09-08T09:35:50;100489.48;;;24.10;53.62
3748;BME280;1889;50.058;8.688;2023-09-08T09:38:20;100487.19;;;24.11;53.29
3748;BME280;1889;50.058;8.688;2023-09-08T09:40:50;100481.03;;;24.16;53.30
3748;BME280;1889;50.058;8.688;2023-09-08T09:43:21;100482.74;;;24.24;53.20
3748;BME280;1889;50.058;8.688;2023-09-08T09:45:52;100483.86;;;24.27;52.71
3748;BME280;1889;50.058;8.688;2023-09-08T09:48:22;100482.80;;;24.29;52.16
3748;BME280;1889;50.058;8.688;2023-09-08T09:50:52;100485.44;;;24.37;52.72
3748;BME280;1889;50.058;8.688;2023-09-08T09:53:21;100485.81;;;24.50;53.04
3748;BME280;1889;50.058;8.688;2023-09-08T09:55:51;100481.68;;;24.52;53.16
3748;BME280;1889;50.058;8.688;2023-09-08T09:58:21;100489.80;;;24.57;53.43
3748;BME280;1889;50.058;8.688;2023-09-08T10:00:51;100479.59;;;24.62;53.29
3748;BME280;1889;50.058;8.688;2023-09-08T10:03:22;100482.53;;;24.65;52.97
3748;BME280;1889;50.058;8.688;2023-09-08T10:05:52;100486.84;;;24.67;52.95
3748;BME280;1889;50.058;8.688;2023-09-08T10:08:22;100481.41;;;24.75;53.39
3748;BME280;1889;50.058;8.688;2023-09-08T10:10:51;100477.16;;;24.78;53.20
3748;BME280;1889;50.058;8.688;2023-09-08T10:13:28;100478.30;;;24.81;53.10
3748;BME280;1889;50.058;8.688;2023-09-08T10:15:58;100476.72;;;24.84;53.28
3748;BME280;1889;50.058;8.688;2023-09-08T10:18:29;100478.41;;;24.92;53.27
3748;BME280;1889;50.058;8.688;2023-09-08T10:21:03;100480.24;;;25.04;53.08
3748;BME280;1889;50.058;8.688;2023-09-08T10:23:38;100477.55;;;25.04;52.65
3748;BME280;1889;50.058;8.688;2023-09-08T10:26:11;100473.06;;;24.97;51.66
3748;BME280;1889;50.058;8.688;2023-09-08T10:28:40;100472.30;;;25.08;52.31
3748;BME280;1889;50.058;8.688;2023-09-08T10:31:09;100467.22;;;25.16;52.31
3748;BME280;1889;50.058;8.688;2023-09-08T10:33:39;100463.93;;;25.18;52.46
3748;BME280;1889;50.058;8.688;2023-09-08T10:36:10;100458.67;;;25.22;52.37
3748;BME280;1889;50.058;8.688;2023-09-08T10:38:40;100464.72;;;25.26;52.79
3748;BME280;1889;50.058;8.688;2023-09-08T10:43:56;100454.59;;;25.29;52.08
3748;BME280;1889;50.058;8.688;2023-09-08T10:46:31;100447.52;;;25.39;51.94
3748;BME280;1889;50.058;8.688;2023-09-08T10:49:05;100453.20;;;25.47;51.96
3748;BME280;1889;50.058;8.688;2023-09-08T10:51:39;100449.22;;;25.53;51.94
3748;BME280;1889;50.058;8.688;2023-09-08T10:54:08;100448.67;;;25.61;52.16
3748;BME280;1889;50.058;8.688;2023-09-08T10:56:56;100446.48;;;25.66;51.94
3748;BME280;1889;50.058;8.688;2023-09-08T10:59:35;100441.59;;;25.71;51.04
3748;BME280;1889;50.058;8.688;2023-09-08T11:02:04;100440.67;;;25.83;51.00
3748;BME280;1889;50.058;8.688;2023-09-08T11:04:34;100439.83;;;25.88;51.09
3748;BME280;1889;50.058;8.688;2023-09-08T11:07:05;100433.23;;;25.92;49.58
3748;BME280;1889;50.058;8.688;2023-09-08T11:09:36;100439.28;;;26.01;50.36
3748;BME280;1889;50.058;8.688;2023-09-08T11:12:06;100437.83;;;26.08;49.73
3748;BME280;1889;50.058;8.688;2023-09-08T11:14:36;100431.09;;;26.19;48.12
3748;BME280;1889;50.058;8.688;2023-09-08T11:17:05;100435.44;;;26.28;48.78
3748;BME280;1889;50.058;8.688;2023-09-08T11:19:48;100431.91;;;26.33;48.61
3748;BME280;1889;50.058;8.688;2023-09-08T11:22:17;100424.93;;;26.41;48.56
3748;BME280;1889;50.058;8.688;2023-09-08T11:24:47;100431.55;;;26.54;47.97
3748;BME280;1889;50.058;8.688;2023-09-08T11:27:17;100426.03;;;26.61;47.96
3748;BME280;1889;50.058;8.688;2023-09-08T11:29:47;100420.51;;;26.68;48.14
3748;BME280;1889;50.058;8.688;2023-09-08T11:32:16;100414.88;;;26.71;47.72
3748;BME280;1889;50.058;8.688;2023-09-08T11:34:45;100418.42;;;26.77;48.12
3748;BME280;1889;50.058;8.688;2023-09-08T11:37:16;100415.38;;;26.82;47.45
3748;BME280;1889;50.058;8.688;2023-09-08T11:39:46;100412.45;;;26.90;47.53
3748;BME280;1889;50.058;8.688;2023-09-08T11:42:15;100404.59;;;26.99;48.11
3748;BME280;1889;50.058;8.688;2023-09-08T11:44:44;100401.86;;;27.04;47.45
3748;BME280;1889;50.058;8.688;2023-09-08T11:47:15;100403.05;;;27.17;47.37
3748;BME280;1889;50.058;8.688;2023-09-08T11:49:44;100400.23;;;27.24;47.61
3748;BME280;1889;50.058;8.688;2023-09-08T11:52:13;100402.80;;;27.31;47.04
3748;BME280;1889;50.058;8.688;2023-09-08T11:54:43;100405.94;;;27.42;46.92
3748;BME280;1889;50.058;8.688;2023-09-08T11:57:12;100408.16;;;27.48;46.78
3748;BME280;1889;50.058;8.688;2023-09-08T11:59:42;100402.27;;;27.54;46.99
3748;BME280;1889;50.058;8.688;2023-09-08T12:02:13;100403.80;;;27.67;46.79
3748;BME280;1889;50.058;8.688;2023-09-08T12:04:42;100400.48;;;27.69;46.69
3748;BME280;1889;50.058;8.688;2023-09-08T12:07:14;100400.31;;;27.77;46.30
3748;BME280;1889;50.058;8.688;2023-09-08T12:09:45;100397.28;;;27.91;46.37
3748;BME280;1889;50.058;8.688;2023-09-08T12:12:14;100402.16;;;28.02;45.38
3748;BME280;1889;50.058;8.688;2023-09-08T12:14:43;100396.94;;;28.10;45.54
3748;BME280;1889;50.058;8.688;2023-09-08T12:17:12;100395.11;;;28.05;44.54
3748;BME280;1889;50.058;8.688;2023-09-08T12:19:43;100401.11;;;28.20;44.67
3748;BME280;1889;50.058;8.688;2023-09-08T12:22:12;100388.75;;;28.27;44.50
3748;BME280;1889;50.058;8.688;2023-09-08T12:24:56;100390.83;;;28.29;43.80
3748;BME280;1889;50.058;8.688;2023-09-08T12:27:26;100387.66;;;28.39;43.86
3748;BME280;1889;50.058;8.688;2023-09-08T12:30:03;100388.88;;;28.41;43.00
3748;BME280;1889;50.058;8.688;2023-09-08T12:32:32;100392.45;;;28.57;42.12
3748;BME280;1889;50.058;8.688;2023-09-08T12:35:04;100388.75;;;28.42;41.99
3748;BME280;1889;50.058;8.688;2023-09-08T12:37:34;100392.45;;;28.41;43.16
3748;BME280;1889;50.058;8.688;2023-09-08T12:40:04;100381.92;;;28.48;42.78
3748;BME280;1889;50.058;8.688;2023-09-08T12:42:34;100382.30;;;28.49;42.58
3748;BME280;1889;50.058;8.688;2023-09-08T12:45:03;100387.95;;;28.36;41.56
3748;BME280;1889;50.058;8.688;2023-09-08T12:47:32;100381.88;;;28.38;42.19
3748;BME280;1889;50.058;8.688;2023-09-08T12:50:04;100386.24;;;28.30;41.65
3748;BME280;1889;50.058;8.688;2023-09-08T12:52:33;100380.00;;;28.29;42.04
3748;BME280;1889;50.058;8.688;2023-09-08T12:55:02;100381.24;;;28.25;41.59
3748;BME280;1889;50.058;8.688;2023-09-08T12:57:31;100384.27;;;28.11;41.22
3748;BME280;1889;50.058;8.688;2023-09-08T13:00:00;100380.45;;;28.08;41.60
3748;BME280;1889;50.058;8.688;2023-09-08T13:02:30;100381.73;;;28.04;40.57
3748;BME280;1889;50.058;8.688;2023-09-08T13:04:59;100377.59;;;27.94;41.13
3748;BME280;1889;50.058;8.688;2023-09-08T13:07:28;100370.02;;;27.88;41.03
3748;BME280;1889;50.058;8.688;2023-09-08T13:09:58;100367.92;;;27.86;41.08
3748;BME280;1889;50.058;8.688;2023-09-08T13:12:27;100369.03;;;27.84;41.26
3748;BME280;1889;50.058;8.688;2023-09-08T13:14:56;100369.77;;;27.86;41.30
3748;BME280;1889;50.058;8.688;2023-09-08T13:17:25;100368.05;;;27.85;41.41
3748;BME280;1889;50.058;8.688;2023-09-08T13:19:54;100362.02;;;27.87;41.37
3748;BME280;1889;50.058;8.688;2023-09-08T13:22:23;100356.97;;;27.88;41.57
3748;BME280;1889;50.058;8.688;2023-09-08T13:24:52;100360.05;;;27.83;41.40
3748;BME280;1889;50.058;8.688;2023-09-08T13:27:22;100359.56;;;27.84;40.85
3748;BME280;1889;50.058;8.688;2023-09-08T13:29:53;100353.58;;;27.80;40.39
3748;BME280;1889;50.058;8.688;2023-09-08T13:32:22;100352.31;;;27.84;40.93